Time;durP1;ratioP1;P1;durP2;ratioP2;P2;SDS_P1;SDS_P2;PMS_P1;PMS_P2;Temp;Humidity;BMP_temperature;BMP_pressure;BME280_temperature;BME280_humidity;BME280_pressure;Samples;Min_cycle;Max_cycle;Signal;HPM_P1;HPM_P2
2024/01/13 00:02:06;;;;;;;0.30;0.30;;;;;;;3.64;100.00;103065.88;5094079;27;97963;-27
2024/01/13 00:04:31;;;;;;;0.38;0.38;;;;;;;3.53;100.00;103052.47;5094079;27;99075;-27
2024/01/13 00:06:56;;;;;;;2.60;1.48;;;;;;;3.64;100.00;103055.16;5075435;27;96539;-26
2024/01/13 00:09:22;;;;;;;3.55;1.63;;;;;;;3.60;100.00;103057.84;5094054;27;96456;-26
2024/01/13 00:11:47;;;;;;;0.50;0.50;;;;;;;3.50;100.00;103057.78;5093644;27;97391;-27
2024/01/13 00:14:12;;;;;;;1.83;1.27;;;;;;;3.46;100.00;103050.66;5093858;27;98090;-27
2024/01/13 00:16:38;;;;;;;2.03;1.48;;;;;;;3.47;100.00;103049.75;5093717;27;96480;-27
2024/01/13 00:19:03;;;;;;;0.30;0.30;;;;;;;3.39;100.00;103034.53;5093883;27;96999;-28
2024/01/13 00:21:28;;;;;;;0.82;0.70;;;;;;;3.46;100.00;103030.09;5093600;27;99203;-27
2024/01/13 00:23:53;;;;;;;1.08;0.73;;;;;;;3.47;100.00;103037.25;5093773;27;97762;-27
2024/01/13 00:26:19;;;;;;;1.92;0.70;;;;;;;3.48;100.00;103036.38;5093534;27;101431;-27
2024/01/13 00:28:44;;;;;;;1.70;0.75;;;;;;;3.51;100.00;103040.84;5094051;27;96947;-27
2024/01/13 00:31:10;;;;;;;1.45;1.35;;;;;;;3.53;100.00;103036.38;5093616;27;102889;-27
2024/01/13 00:33:35;;;;;;;2.00;1.25;;;;;;;3.54;100.00;103022.09;5092968;27;99423;-26
2024/01/13 00:36:01;;;;;;;2.08;1.02;;;;;;;3.60;100.00;103011.41;5093043;27;96517;-28
2024/01/13 00:38:26;;;;;;;1.10;0.90;;;;;;;3.70;100.00;103018.56;5093695;27;96743;-27
2024/01/13 00:40:51;;;;;;;1.52;1.33;;;;;;;3.64;100.00;103018.53;5093800;27;97402;-27
2024/01/13 00:43:17;;;;;;;1.20;0.98;;;;;;;3.59;100.00;103021.19;5093416;27;99067;-28
2024/01/13 00:45:42;;;;;;;2.40;1.42;;;;;;;3.64;100.00;103005.13;5093453;27;100163;-27
2024/01/13 00:48:07;;;;;;;4.28;1.30;;;;;;;3.64;100.00;103007.81;5093083;27;96890;-26
2024/01/13 00:50:35;;;;;;;1.75;1.35;;;;;;;3.54;100.00;103003.31;5093527;27;97569;-27
2024/01/13 00:53:00;;;;;;;1.15;1.00;;;;;;;3.65;100.00;103004.25;5074883;27;100753;-28
2024/01/13 00:55:25;;;;;;;3.05;0.88;;;;;;;3.70;100.00;103001.59;5093906;27;96553;-27
2024/01/13 00:57:51;;;;;;;1.13;1.05;;;;;;;3.73;100.00;102998.91;5093216;27;96536;-27
2024/01/13 01:00:16;;;;;;;2.13;1.75;;;;;;;3.66;100.00;102994.44;5092939;27;105581;-27
2024/01/13 01:02:41;;;;;;;1.48;1.20;;;;;;;3.61;100.00;102991.72;5092645;27;97621;-26
2024/01/13 01:05:07;;;;;;;2.03;0.98;;;;;;;3.55;100.00;102989.03;5093195;27;96645;-28
2024/01/13 01:07:32;;;;;;;1.10;0.98;;;;;;;3.59;100.00;102996.19;5093159;27;96832;-28
2024/01/13 01:09:58;;;;;;;2.22;1.45;;;;;;;3.57;100.00;102989.94;5093401;27;97463;-28
2024/01/13 01:12:26;;;;;;;0.82;0.82;;;;;;;3.56;100.00;102991.72;5093004;27;98330;-27
2024/01/13 01:14:51;;;;;;;1.52;1.35;;;;;;;3.52;100.00;102981.88;5093291;27;96482;-27
2024/01/13 01:17:16;;;;;;;2.92;1.48;;;;;;;3.54;100.00;102987.25;5093403;27;96897;-26
2024/01/13 01:19:42;;;;;;;0.63;0.63;;;;;;;3.51;100.00;102979.22;5092786;27;99744;-27
2024/01/13 01:22:07;;;;;;;1.55;1.05;;;;;;;3.50;100.00;102982.78;5093080;27;98289;-27
2024/01/13 01:24:32;;;;;;;0.98;0.93;;;;;;;3.54;100.00;102982.78;5092827;27;96857;-26
2024/01/13 01:26:58;;;;;;;1.48;1.23;;;;;;;3.51;100.00;102977.44;5093082;27;96579;-27
2024/01/13 01:29:23;;;;;;;0.20;0.20;;;;;;;3.50;100.00;102972.94;5093052;27;97774;-27
2024/01/13 01:31:48;;;;;;;1.35;0.98;;;;;;;3.53;100.00;102972.09;5092511;27;101589;-27
2024/01/13 01:34:14;;;;;;;0.70;0.65;;;;;;;3.57;100.00;102979.22;5092965;27;96792;-27
2024/01/13 01:36:39;;;;;;;0.73;0.57;;;;;;;3.59;100.00;102980.13;5092893;27;97536;-28
2024/01/13 01:39:04;;;;;;;0.50;0.45;;;;;;;3.61;100.00;102981.00;5092641;27;104234;-27
2024/01/13 01:41:30;;;;;;;0.60;0.47;;;;;;;3.57;100.00;102964.03;5092990;27;99307;-27
2024/01/13 01:43:56;;;;;;;0.30;0.30;;;;;;;3.57;100.00;102961.34;5092972;27;96572;-26
2024/01/13 01:46:23;;;;;;;0.65;0.65;;;;;;;3.61;100.00;102959.59;5096255;27;96798;-27
2024/01/13 01:48:57;;;;;;;0.52;0.52;;;;;;;3.64;100.00;102961.38;5076916;27;100928;-27
2024/01/13 01:51:23;;;;;;;0.45;0.45;;;;;;;3.66;100.00;102960.47;5095811;27;99413;-27
2024/01/13 01:53:49;;;;;;;0.95;0.77;;;;;;;3.63;100.00;102947.09;5096051;27;96618;-28
2024/01/13 01:56:18;;;;;;;0.35;0.35;;;;;;;3.63;100.00;102952.44;5077524;27;97025;-27
2024/01/13 01:58:46;;;;;;;0.32;0.32;;;;;;;3.66;100.00;102959.59;5077210;27;101486;-27
2024/01/13 02:01:14;;;;;;;0.93;0.82;;;;;;;3.67;100.00;102950.66;5077398;27;100705;-27
2024/01/13 02:03:39;;;;;;;0.20;0.20;;;;;;;3.61;100.00;102935.47;5095480;27;96757;-27
2024/01/13 02:06:06;;;;;;;0.52;0.50;;;;;;;3.69;100.00;102946.19;5077942;27;96852;-27
2024/01/13 02:08:32;;;;;;;0.90;0.77;;;;;;;3.67;100.00;102942.59;5077225;27;101271;-28
2024/01/13 02:10:58;;;;;;;0.85;0.68;;;;;;;3.70;100.00;102940.84;5077060;27;100916;-27
2024/01/13 02:13:23;;;;;;;1.35;1.00;;;;;;;3.72;100.00;102935.47;5076569;27;97551;-27
2024/01/13 02:15:49;;;;;;;0.90;0.75;;;;;;;3.67;100.00;102926.53;5095938;27;96797;-27
2024/01/13 02:18:14;;;;;;;0.80;0.77;;;;;;;3.67;100.00;102921.16;5095801;27;97942;-28
2024/01/13 02:20:39;;;;;;;0.32;0.32;;;;;;;3.68;100.00;102910.47;5095837;27;97261;-27
2024/01/13 02:23:04;;;;;;;0.25;0.25;;;;;;;3.69;100.00;102908.66;5095900;27;96572;-28
2024/01/13 02:25:30;;;;;;;0.20;0.20;;;;;;;3.66;100.00;102909.56;5095686;27;96829;-27
2024/01/13 02:27:55;;;;;;;0.80;0.60;;;;;;;3.71;100.00;102914.91;5094971;27;101050;-27
2024/01/13 02:30:20;;;;;;;0.08;0.08;;;;;;;3.65;100.00;102905.09;5096113;27;97821;-28
2024/01/13 02:32:46;;;;;;;0.32;0.32;;;;;;;3.70;100.00;102906.00;5095818;27;96520;-27
2024/01/13 02:35:11;;;;;;;0.00;0.00;;;;;;;3.64;100.00;102889.91;5095906;27;96806;-27
2024/01/13 02:37:36;;;;;;;0.45;0.45;;;;;;;3.64;100.00;102900.63;5095156;27;97848;-27
2024/01/13 02:40:02;;;;;;;0.13;0.13;;;;;;;3.63;100.00;102898.84;5095518;27;97790;-27
2024/01/13 02:42:28;;;;;;;0.28;0.25;;;;;;;3.65;100.00;102883.66;5076780;27;96539;-27
2024/01/13 02:44:53;;;;;;;0.13;0.13;;;;;;;3.66;100.00;102887.22;5095653;27;96794;-26
2024/01/13 02:47:26;;;;;;;0.45;0.45;;;;;;;3.59;100.00;102881.84;5076726;27;99532;-27
2024/01/13 02:49:51;;;;;;;0.10;0.10;;;;;;;3.60;100.00;102870.25;5076356;27;99295;-28
2024/01/13 02:52:17;;;;;;;0.85;0.63;;;;;;;3.60;100.00;102869.38;5095562;27;96682;-27
2024/01/13 02:54:42;;;;;;;0.10;0.10;;;;;;;3.59;100.00;102863.09;5095791;27;96828;-26
2024/01/13 02:57:07;;;;;;;0.55;0.52;;;;;;;3.56;100.00;102851.50;5094805;27;100317;-27
2024/01/13 02:59:32;;;;;;;1.45;1.02;;;;;;;3.60;100.00;102862.22;5094491;27;105731;-27
2024/01/13 03:01:58;;;;;;;1.52;0.77;;;;;;;3.59;100.00;102864.91;5094806;27;96410;-27
2024/01/13 03:04:23;;;;;;;1.00;0.50;;;;;;;3.57;100.00;102858.63;5094913;27;97277;-26
2024/01/13 03:06:48;;;;;;;2.13;0.88;;;;;;;3.58;100.00;102852.41;5094567;27;107727;-27
2024/01/13 03:09:14;;;;;;;0.93;0.80;;;;;;;3.59;100.00;102848.81;5094868;27;105329;-27
2024/01/13 03:11:39;;;;;;;0.75;0.63;;;;;;;3.57;100.00;102854.16;5095071;27;96502;-27
2024/01/13 03:14:04;;;;;;;0.30;0.30;;;;;;;3.60;100.00;102846.16;5094754;27;96816;-27
2024/01/13 03:16:29;;;;;;;0.93;0.50;;;;;;;3.63;100.00;102839.00;5094964;27;97585;-27
2024/01/13 03:18:55;;;;;;;0.20;0.20;;;;;;;3.62;100.00;102835.41;5095135;27;97788;-28
2024/01/13 03:21:20;;;;;;;0.22;0.15;;;;;;;3.61;100.00;102836.31;5095138;27;96537;-27
2024/01/13 03:23:45;;;;;;;0.17;0.17;;;;;;;3.61;100.00;102829.16;5094736;27;96841;-27
2024/01/13 03:26:12;;;;;;;0.50;0.43;;;;;;;3.63;100.00;102828.28;5094166;27;97439;-27
2024/01/13 03:28:38;;;;;;;0.60;0.32;;;;;;;3.57;100.00;102813.97;5075967;27;100884;-27
2024/01/13 03:31:03;;;;;;;0.03;0.03;;;;;;;3.61;100.00;102820.25;5094603;27;96629;-27
2024/01/13 03:33:29;;;;;;;1.52;1.00;;;;;;;3.63;100.00;102809.53;5094512;27;98229;-27
2024/01/13 03:35:54;;;;;;;0.40;0.40;;;;;;;3.61;100.00;102814.88;5094280;27;99388;-27
2024/01/13 03:38:20;;;;;;;0.25;0.17;;;;;;;3.60;100.00;102813.13;5094466;27;97402;-26
2024/01/13 03:40:45;;;;;;;0.50;0.50;;;;;;;3.64;100.00;102817.56;5094679;27;96508;-28
2024/01/13 03:43:10;;;;;;;0.00;0.00;;;;;;;3.60;100.00;102805.06;5095120;27;96832;-27
2024/01/13 03:45:36;;;;;;;0.30;0.30;;;;;;;3.66;100.00;102807.72;5094228;27;99276;-26
2024/01/13 03:48:01;;;;;;;0.57;0.32;;;;;;;3.65;100.00;102805.03;5093573;27;109923;-28
2024/01/13 03:50:26;;;;;;;1.27;0.60;;;;;;;3.65;100.00;102794.31;5093808;27;96461;-27
2024/01/13 03:52:53;;;;;;;0.60;0.52;;;;;;;3.68;100.00;102788.97;5093944;27;96859;-27
2024/01/13 03:55:18;;;;;;;0.75;0.38;;;;;;;3.66;100.00;102780.94;5094326;27;97268;-27
2024/01/13 03:57:43;;;;;;;0.25;0.25;;;;;;;3.76;100.00;102777.31;5094062;27;97773;-28
2024/01/13 04:00:09;;;;;;;0.50;0.40;;;;;;;3.79;100.00;102779.09;5094046;27;103134;-27
2024/01/13 04:02:35;;;;;;;1.42;1.02;;;;;;;3.81;100.00;102770.19;5093963;27;96862;-26
2024/01/13 04:05:00;;;;;;;0.30;0.30;;;;;;;3.80;100.00;102760.34;5094016;27;99750;-27
2024/01/13 04:07:25;;;;;;;0.90;0.32;;;;;;;3.80;100.00;102746.06;5093469;27;105629;-29
2024/01/13 04:09:50;;;;;;;0.52;0.52;;;;;;;3.77;100.00;102741.59;5094159;27;96633;-28
2024/01/13 04:12:16;;;;;;;0.55;0.43;;;;;;;3.76;100.00;102745.16;5093653;27;100092;-27
2024/01/13 04:14:41;;;;;;;0.60;0.47;;;;;;;3.74;100.00;102738.94;5093496;27;97331;-26
2024/01/13 04:17:07;;;;;;;0.40;0.32;;;;;;;3.76;100.00;102739.81;5094024;27;97871;-27
2024/01/13 04:19:32;;;;;;;0.98;0.70;;;;;;;3.81;100.00;102743.41;5075356;27;96824;-27
2024/01/13 04:21:58;;;;;;;0.73;0.60;;;;;;;3.80;100.00;102752.31;5093877;27;96873;-27
2024/01/13 04:24:23;;;;;;;2.75;1.05;;;;;;;3.79;100.00;102749.63;5093918;27;99791;-27
2024/01/13 04:26:48;;;;;;;0.30;0.30;;;;;;;3.73;100.00;102739.81;5093574;27;97325;-27
2024/01/13 04:29:15;;;;;;;1.30;0.70;;;;;;;3.70;100.00;102738.97;5094126;27;96567;-26
2024/01/13 04:31:40;;;;;;;0.38;0.22;;;;;;;3.69;100.00;102740.72;5093919;27;96810;-27
2024/01/13 04:34:06;;;;;;;0.35;0.35;;;;;;;3.74;100.00;102743.38;5093516;27;97564;-27
2024/01/13 04:36:31;;;;;;;0.30;0.20;;;;;;;3.76;100.00;102744.28;5093619;27;97773;-27
2024/01/13 04:38:56;;;;;;;0.00;0.00;;;;;;;3.80;100.00;102744.28;5093174;27;97817;-27
2024/01/13 04:41:21;;;;;;;0.15;0.15;;;;;;;3.78;100.00;102737.13;5093566;27;96876;-27
2024/01/13 04:43:47;;;;;;;0.32;0.32;;;;;;;3.80;100.00;102741.59;5093493;27;97936;-27
2024/01/13 04:46:14;;;;;;;0.73;0.65;;;;;;;3.83;100.00;102744.25;5093629;27;97849;-27
2024/01/13 04:48:43;;;;;;;1.42;0.47;;;;;;;3.82;100.00;102739.81;5074739;27;96862;-28
2024/01/13 04:51:08;;;;;;;8.85;1.23;;;;;;;3.86;100.00;102746.03;5074689;27;97265;-27
2024/01/13 04:53:33;;;;;;;0.15;0.15;;;;;;;3.81;100.00;102740.72;5093484;27;97344;-28
2024/01/13 04:55:59;;;;;;;0.63;0.35;;;;;;;3.81;100.00;102719.28;5093540;27;98850;-26
2024/01/13 04:58:25;;;;;;;0.32;0.32;;;;;;;3.87;100.00;102723.72;5074774;27;96730;-27
2024/01/13 05:00:50;;;;;;;0.52;0.43;;;;;;;3.89;100.00;102735.31;5093479;27;96680;-27
2024/01/13 05:03:15;;;;;;;0.45;0.45;;;;;;;3.89;100.00;102739.78;5092390;27;98228;-27
2024/01/13 05:05:41;;;;;;;0.98;0.70;;;;;;;3.88;100.00;102729.94;5093244;27;97387;-27
2024/01/13 05:08:06;;;;;;;0.60;0.55;;;;;;;3.87;100.00;102729.06;5093246;27;96588;-27
2024/01/13 05:10:31;;;;;;;1.52;0.85;;;;;;;3.89;100.00;102735.31;5092663;27;97922;-27
2024/01/13 05:12:57;;;;;;;0.75;0.65;;;;;;;3.89;100.00;102724.59;5093110;27;97370;-27
2024/01/13 05:15:22;;;;;;;0.38;0.30;;;;;;;3.91;100.00;102733.53;5093302;27;97973;-27
2024/01/13 05:17:48;;;;;;;0.63;0.47;;;;;;;3.89;100.00;102735.31;5093371;27;96513;-28
2024/01/13 05:20:13;;;;;;;0.15;0.15;;;;;;;3.88;100.00;102733.53;5096049;27;96780;-27
2024/01/13 05:22:38;;;;;;;0.80;0.50;;;;;;;3.95;100.00;102745.13;5096503;27;99099;-27
2024/01/13 05:25:04;;;;;;;0.75;0.40;;;;;;;3.93;100.00;102742.47;5096417;27;98257;-27
2024/01/13 05:27:30;;;;;;;0.00;0.00;;;;;;;4.01;100.00;102739.75;5096393;27;96606;-27
2024/01/13 05:29:55;;;;;;;0.45;0.45;;;;;;;4.05;100.00;102730.78;5096779;27;96854;-27
2024/01/13 05:32:20;;;;;;;0.40;0.30;;;;;;;4.17;100.00;102741.47;5096382;27;98333;-27
2024/01/13 05:34:46;;;;;;;0.00;0.00;;;;;;;4.18;100.00;102731.63;5096633;27;97427;-28
2024/01/13 05:37:11;;;;;;;0.15;0.15;;;;;;;4.25;100.00;102738.75;5096638;27;96545;-27
2024/01/13 05:39:36;;;;;;;0.22;0.15;;;;;;;4.19;100.00;102720.00;5096192;27;96839;-28
2024/01/13 05:42:02;;;;;;;0.13;0.13;;;;;;;4.21;100.00;102724.44;5096187;27;99636;-26
2024/01/13 05:44:27;;;;;;;0.10;0.10;;;;;;;4.31;100.00;102729.78;5096355;27;99166;-27
2024/01/13 05:46:52;;;;;;;0.30;0.30;;;;;;;4.34;100.00;102716.31;5096479;27;96519;-26
2024/01/13 05:49:18;;;;;;;1.35;0.57;;;;;;;4.35;100.00;102705.59;5096262;27;96793;-27
2024/01/13 05:51:43;;;;;;;0.98;0.50;;;;;;;4.26;100.00;102695.81;5095528;27;97845;-27
2024/01/13 05:54:09;;;;;;;0.68;0.20;;;;;;;4.21;100.00;102700.31;5096081;27;97308;-27
2024/01/13 05:56:35;;;;;;;0.75;0.47;;;;;;;4.16;100.00;102699.44;5077541;27;96669;-27
2024/01/13 05:59:00;;;;;;;0.68;0.40;;;;;;;4.14;100.00;102697.66;5077794;27;96803;-27
2024/01/13 06:01:26;;;;;;;0.30;0.28;;;;;;;4.16;100.00;102702.13;5096108;27;97496;-27
2024/01/13 06:03:51;;;;;;;0.05;0.05;;;;;;;4.17;100.00;102708.38;5095514;27;97550;-27
2024/01/13 06:06:17;;;;;;;0.10;0.10;;;;;;;4.09;100.00;102703.06;5096206;27;96481;-27
2024/01/13 06:08:43;;;;;;;0.70;0.47;;;;;;;4.13;100.00;102702.16;5077849;27;96886;-28
2024/01/13 06:11:08;;;;;;;0.10;0.10;;;;;;;4.13;100.00;102688.75;5077239;27;101449;-27
2024/01/13 06:13:34;;;;;;;0.38;0.38;;;;;;;4.07;100.00;102679.84;5095891;27;97871;-27
2024/01/13 06:15:59;;;;;;;0.30;0.30;;;;;;;4.03;100.00;102681.66;5095688;27;96573;-27
2024/01/13 06:18:24;;;;;;;0.73;0.60;;;;;;;4.12;100.00;102681.56;5095982;27;96821;-28
2024/01/13 06:20:50;;;;;;;0.13;0.13;;;;;;;4.14;100.00;102668.19;5095906;27;97477;-27
2024/01/13 06:23:15;;;;;;;0.17;0.15;;;;;;;4.15;100.00;102651.19;5095530;27;98823;-27
2024/01/13 06:25:40;;;;;;;0.50;0.25;;;;;;;4.17;100.00;102658.34;5095844;27;96528;-27
2024/01/13 06:28:06;;;;;;;0.10;0.10;;;;;;;4.17;100.00;102681.56;5095592;27;96909;-27
2024/01/13 06:30:32;;;;;;;0.45;0.45;;;;;;;4.14;100.00;102676.22;5094740;27;99902;-27
2024/01/13 06:32:57;;;;;;;0.10;0.10;;;;;;;4.10;100.00;102661.94;5095912;27;97233;-26
2024/01/13 06:35:22;;;;;;;0.00;0.00;;;;;;;4.16;100.00;102663.69;5095584;27;96497;-28
2024/01/13 06:37:47;;;;;;;0.32;0.30;;;;;;;4.14;100.00;102639.56;5095644;27;96909;-27
2024/01/13 06:40:13;;;;;;;0.05;0.05;;;;;;;4.17;100.00;102633.28;5094780;27;98345;-27
2024/01/13 06:42:38;;;;;;;0.43;0.43;;;;;;;4.14;100.00;102631.50;5095246;27;98237;-27
2024/01/13 06:45:05;;;;;;;0.32;0.22;;;;;;;4.17;100.00;102638.66;5095141;27;99964;-27
2024/01/13 06:47:30;;;;;;;0.30;0.30;;;;;;;4.15;100.00;102633.31;5076824;27;96836;-28
2024/01/13 06:49:55;;;;;;;1.25;0.30;;;;;;;4.19;100.00;102620.75;5095103;27;97929;-27
2024/01/13 06:52:21;;;;;;;0.17;0.15;;;;;;;4.18;100.00;102621.69;5095066;27;98955;-27
2024/01/13 06:54:46;;;;;;;0.50;0.50;;;;;;;4.21;100.00;102609.13;5094921;27;96659;-28
2024/01/13 06:57:11;;;;;;;0.32;0.32;;;;;;;4.22;100.00;102613.59;5095815;27;97099;-26
2024/01/13 06:59:37;;;;;;;0.10;0.10;;;;;;;4.19;100.00;102607.34;5094841;27;99365;-27
2024/01/13 07:02:02;;;;;;;0.20;0.20;;;;;;;4.20;100.00;102602.00;5094988;27;99337;-27
2024/01/13 07:04:28;;;;;;;0.73;0.60;;;;;;;4.16;100.00;102599.34;5094379;27;96812;-27
2024/01/13 07:06:54;;;;;;;0.00;0.00;;;;;;;4.14;100.00;102582.34;5076649;27;96858;-27
2024/01/13 07:09:19;;;;;;;0.40;0.40;;;;;;;4.14;100.00;102580.56;5094586;27;105563;-27
2024/01/13 07:11:48;;;;;;;0.28;0.22;;;;;;;4.15;100.00;102579.69;5094927;27;102222;-26
2024/01/13 07:14:13;;;;;;;1.10;1.00;;;;;;;4.20;100.00;102593.06;5076251;27;96753;-27
2024/01/13 07:16:39;;;;;;;0.43;0.43;;;;;;;4.14;100.00;102583.25;5094807;27;96812;-27
2024/01/13 07:19:06;;;;;;;0.38;0.20;;;;;;;4.22;100.00;102608.25;5094967;27;106086;-26
2024/01/13 07:21:31;;;;;;;0.55;0.47;;;;;;;4.23;100.00;102603.75;5094951;27;99174;-27
2024/01/13 07:23:57;;;;;;;0.52;0.50;;;;;;;4.28;100.00;102609.09;5094831;27;96612;-27
2024/01/13 07:26:22;;;;;;;0.70;0.32;;;;;;;4.32;100.00;102598.34;5094652;27;96582;-27
2024/01/13 07:28:47;;;;;;;1.02;0.43;;;;;;;4.30;100.00;102591.19;5094359;27;98384;-27
2024/01/13 07:31:13;;;;;;;0.30;0.30;;;;;;;4.23;100.00;102571.56;5094848;27;97795;-27
2024/01/13 07:33:38;;;;;;;0.50;0.40;;;;;;;4.23;100.00;102564.41;5094784;27;96607;-27
2024/01/13 07:36:04;;;;;;;0.43;0.43;;;;;;;4.23;100.00;102568.88;5094815;27;96805;-27
2024/01/13 07:38:29;;;;;;;0.68;0.68;;;;;;;4.25;100.00;102584.06;5094243;27;99649;-27
2024/01/13 07:40:55;;;;;;;0.60;0.47;;;;;;;4.25;100.00;102572.44;5094842;27;97268;-27
2024/01/13 07:43:20;;;;;;;0.60;0.60;;;;;;;4.27;100.00;102559.94;5093340;27;96815;-26
2024/01/13 07:45:46;;;;;;;0.98;0.75;;;;;;;4.29;100.00;102544.72;5094630;27;96908;-26
2024/01/13 07:48:11;;;;;;;1.45;0.68;;;;;;;4.31;100.00;102572.38;5094122;27;98063;-27
2024/01/13 07:50:36;;;;;;;0.40;0.40;;;;;;;4.32;100.00;102570.63;5094491;27;97785;-26
2024/01/13 07:53:02;;;;;;;1.35;1.00;;;;;;;4.30;100.00;102556.31;5093333;27;96702;-27
2024/01/13 07:55:27;;;;;;;0.55;0.55;;;;;;;4.26;100.00;102556.31;5094285;27;96849;-27
2024/01/13 07:57:53;;;;;;;1.08;0.80;;;;;;;4.31;100.00;102550.94;5093932;27;98975;-26
2024/01/13 08:00:19;;;;;;;0.85;0.75;;;;;;;4.29;100.00;102546.47;5093983;27;99558;-27
2024/01/13 08:02:44;;;;;;;0.32;0.32;;;;;;;4.28;100.00;102568.84;5093815;27;96860;-27
2024/01/13 08:05:10;;;;;;;0.50;0.50;;;;;;;4.26;100.00;102567.06;5094459;27;97865;-26
2024/01/13 08:07:35;;;;;;;0.68;0.55;;;;;;;4.26;100.00;102553.66;5093679;27;99445;-27
2024/01/13 08:10:01;;;;;;;0.68;0.55;;;;;;;4.23;100.00;102552.78;5094463;27;97767;-26
2024/01/13 08:12:26;;;;;;;0.85;0.63;;;;;;;4.26;100.00;102537.56;5094021;27;96572;-27
2024/01/13 08:14:51;;;;;;;0.68;0.68;;;;;;;4.31;100.00;102555.41;5093820;27;96813;-27
2024/01/13 08:17:17;;;;;;;0.20;0.20;;;;;;;4.20;100.00;102531.38;5093205;27;99090;-27
2024/01/13 08:19:43;;;;;;;1.20;0.77;;;;;;;4.28;100.00;102544.72;5093930;27;97932;-27
2024/01/13 08:22:08;;;;;;;1.02;0.77;;;;;;;4.28;100.00;102553.66;5093572;27;97256;-27
2024/01/13 08:24:33;;;;;;;1.48;0.93;;;;;;;4.32;100.00;102562.56;5094036;27;96438;-27
2024/01/13 08:26:59;;;;;;;0.50;0.38;;;;;;;4.33;100.00;102548.25;5094214;27;97330;-27
2024/01/13 08:29:24;;;;;;;0.57;0.57;;;;;;;4.32;100.00;102554.53;5093517;27;99809;-28
2024/01/13 08:31:50;;;;;;;0.90;0.63;;;;;;;4.35;100.00;102570.59;5093802;27;96547;-27
2024/01/13 08:34:16;;;;;;;0.93;0.35;;;;;;;4.25;100.00;102559.94;5093807;27;96875;-26
2024/01/13 08:36:41;;;;;;;0.88;0.63;;;;;;;4.24;100.00;102549.19;5093441;27;99231;-27
2024/01/13 08:39:07;;;;;;;0.50;0.50;;;;;;;4.25;100.00;102551.00;5075013;27;101330;-27
2024/01/13 08:41:33;;;;;;;1.08;0.98;;;;;;;4.22;100.00;102549.22;5074529;27;96567;-27
2024/01/13 08:43:59;;;;;;;0.95;0.80;;;;;;;4.25;100.00;102557.25;5074914;27;96855;-27
2024/01/13 08:46:25;;;;;;;1.15;0.68;;;;;;;4.23;100.00;102559.03;5093655;27;97950;-27
2024/01/13 08:48:50;;;;;;;4.47;0.88;;;;;;;4.13;100.00;102546.63;5093571;27;97826;-27
2024/01/13 08:51:15;;;;;;;0.95;0.57;;;;;;;4.24;100.00;102562.59;5093533;27;96681;-27
2024/01/13 08:53:41;;;;;;;1.02;0.68;;;;;;;4.21;100.00;102559.97;5092608;27;96857;-27
2024/01/13 08:56:06;;;;;;;1.40;0.63;;;;;;;4.24;100.00;102560.84;5093067;27;97341;-27
2024/01/13 08:58:31;;;;;;;0.60;0.60;;;;;;;4.27;100.00;102565.28;5093228;27;97186;-27
2024/01/13 09:00:57;;;;;;;0.73;0.73;;;;;;;4.26;100.00;102555.44;5074608;27;96544;-28
2024/01/13 09:03:22;;;;;;;1.17;1.05;;;;;;;4.22;100.00;102541.19;5093009;27;96812;-27
2024/01/13 09:05:48;;;;;;;1.05;0.95;;;;;;;4.17;100.00;102543.00;5092481;27;99758;-27
2024/01/13 09:08:13;;;;;;;0.75;0.75;;;;;;;4.23;100.00;102539.38;5074418;27;100681;-27
2024/01/13 09:10:42;;;;;;;0.38;0.38;;;;;;;4.17;100.00;102537.66;5093499;27;96448;-27
2024/01/13 09:13:07;;;;;;;0.32;0.22;;;;;;;4.18;100.00;102539.41;5093155;27;96676;-27
2024/01/13 09:15:32;;;;;;;0.77;0.77;;;;;;;4.16;100.00;102535.84;5093149;27;98057;-27
2024/01/13 09:17:57;;;;;;;0.43;0.15;;;;;;;4.26;100.00;102534.00;5093123;27;97933;-27
2024/01/13 09:20:24;;;;;;;0.70;0.47;;;;;;;4.20;100.00;102532.25;5093290;27;96483;-27
2024/01/13 09:22:49;;;;;;;2.28;1.02;;;;;;;4.19;100.00;102527.78;5075022;27;96757;-27
2024/01/13 09:25:15;;;;;;;1.17;0.70;;;;;;;4.29;100.00;102539.34;5092712;27;99430;-27
2024/01/13 09:27:40;;;;;;;0.40;0.40;;;;;;;4.23;100.00;102531.34;5093076;27;98320;-27
2024/01/13 09:30:06;;;;;;;1.23;0.98;;;;;;;4.25;100.00;102535.78;5092614;27;99244;-26
2024/01/13 09:32:31;;;;;;;1.77;1.08;;;;;;;4.25;100.00;102530.41;5074190;27;96854;-27
2024/01/13 09:34:57;;;;;;;1.50;1.25;;;;;;;4.17;100.00;102529.59;5092621;27;99293;-28
2024/01/13 09:37:22;;;;;;;3.22;1.67;;;;;;;4.24;100.00;102535.78;5093339;27;97222;-27
2024/01/13 09:39:48;;;;;;;1.38;1.27;;;;;;;4.22;100.00;102525.09;5093041;27;96430;-27
2024/01/13 09:42:21;;;;;;;3.20;2.30;;;;;;;4.18;100.00;102525.13;5092699;27;96852;-27
2024/01/13 09:44:46;;;;;;;1.23;0.95;;;;;;;4.23;100.00;102528.66;5074132;27;101784;-27
2024/01/13 09:47:12;;;;;;;1.80;1.50;;;;;;;4.23;100.00;102525.97;5092970;27;99210;-27
2024/01/13 09:49:37;;;;;;;3.15;1.48;;;;;;;4.26;100.00;102515.22;5073936;27;96669;-27
2024/01/13 09:52:03;;;;;;;3.78;2.50;;;;;;;4.26;100.00;102509.84;5092430;27;96861;-27
2024/01/13 09:54:30;;;;;;;3.58;1.75;;;;;;;4.19;100.00;102511.69;5073461;27;102280;-27
2024/01/13 09:56:57;;;;;;;5.72;2.15;;;;;;;4.22;100.00;102514.38;5073954;27;100898;-27
2024/01/13 09:59:25;;;;;;;3.17;2.10;;;;;;;4.20;100.00;102505.44;5074016;27;96532;-27
2024/01/13 10:01:51;;;;;;;1.55;1.45;;;;;;;4.19;100.00;102505.44;5092572;27;96878;-27
2024/01/13 10:04:17;;;;;;;2.60;1.60;;;;;;;4.18;100.00;102514.41;5091525;27;99776;-26
2024/01/13 10:06:45;;;;;;;1.67;1.30;;;;;;;4.17;100.00;102509.91;5095024;27;97797;-28
2024/01/13 10:09:11;;;;;;;2.70;1.60;;;;;;;4.19;100.00;102526.91;5077251;27;96735;-26
2024/01/13 10:11:37;;;;;;;1.95;1.00;;;;;;;4.16;100.00;102503.69;5077738;27;96872;-26
2024/01/13 10:14:04;;;;;;;9.90;2.13;;;;;;;4.22;100.00;102511.69;5095991;27;97872;-27
2024/01/13 10:16:31;;;;;;;3.03;2.17;;;;;;;4.18;100.00;102501.00;5095768;27;97817;-28
2024/01/13 10:19:08;;;;;;;1.73;1.50;;;;;;;4.21;100.00;102506.31;5076511;27;97012;-28
2024/01/13 10:21:35;;;;;;;4.22;1.52;;;;;;;4.21;100.00;102512.56;5077072;27;97353;-27
2024/01/13 10:24:01;;;;;;;4.00;2.78;;;;;;;4.17;100.00;102510.84;5094183;27;99899;-27
2024/01/13 10:26:28;;;;;;;3.33;2.70;;;;;;;4.17;100.00;102502.78;5094501;27;97505;-31
2024/01/13 10:28:57;;;;;;;2.33;1.88;;;;;;;4.15;100.00;102503.72;5094966;27;97205;-27
2024/01/13 10:31:22;;;;;;;2.33;1.83;;;;;;;4.19;100.00;102503.63;5076730;27;96806;-28
2024/01/13 10:33:49;;;;;;;2.80;1.60;;;;;;;4.20;100.00;102499.19;5095362;27;99247;-26
2024/01/13 10:36:16;;;;;;;2.10;1.67;;;;;;;4.21;100.00;102507.19;5077353;27;100721;-27
2024/01/13 10:38:43;;;;;;;2.22;2.03;;;;;;;4.18;100.00;102506.34;5076904;27;96705;-26
2024/01/13 10:41:12;;;;;;;3.75;2.38;;;;;;;4.18;100.00;102517.97;5077013;27;96816;-26
2024/01/13 10:43:41;;;;;;;3.90;2.40;;;;;;;4.25;100.00;102505.41;5094822;27;99345;-27
2024/01/13 10:46:11;;;;;;;2.00;1.80;;;;;;;4.38;98.93;102504.38;5076642;27;101041;-26
2024/01/13 10:48:41;;;;;;;4.35;2.67;;;;;;;4.24;98.86;102491.09;5076667;27;96590;-28
2024/01/13 10:51:18;;;;;;;3.17;2.88;;;;;;;4.19;99.36;102497.41;5076656;27;96917;-27
2024/01/13 10:53:46;;;;;;;5.82;3.35;;;;;;;4.12;99.50;102485.81;5076562;27;99210;-27
2024/01/13 10:56:14;;;;;;;3.45;2.15;;;;;;;4.08;99.97;102478.72;5076519;27;101281;-27
2024/01/13 10:58:39;;;;;;;3.33;2.53;;;;;;;4.14;100.00;102484.03;5076708;27;96535;-27
2024/01/13 11:01:05;;;;;;;6.53;3.72;;;;;;;4.10;99.86;102479.59;5095379;27;96836;-26
2024/01/13 11:03:32;;;;;;;3.50;2.78;;;;;;;4.04;99.55;102472.50;5094599;27;99370;-26
2024/01/13 11:05:57;;;;;;;5.85;2.58;;;;;;;4.02;100.00;102468.91;5076418;27;100987;-26
2024/01/13 11:08:23;;;;;;;5.32;2.97;;;;;;;4.09;100.00;102493.91;5094370;27;96558;-27
2024/01/13 11:10:50;;;;;;;8.27;4.95;;;;;;;4.06;100.00;102493.94;5094973;27;96851;-26
2024/01/13 11:13:36;;;;;;;3.13;2.75;;;;;;;4.07;100.00;102490.34;5076236;27;101128;-29
2024/01/13 11:16:08;;;;;;;4.95;3.33;;;;;;;4.09;100.00;102488.53;5094788;27;99648;-27
2024/01/13 11:18:40;;;;;;;3.97;2.28;;;;;;;4.02;99.88;102484.13;5076576;27;96833;-27